Time;durP1;ratioP1;P1;durP2;ratioP2;P2;SDS_P1;SDS_P2;PMS_P1;PMS_P2;Temp;Humidity;BMP_temperature;BMP_pressure;BME280_temperature;BME280_humidity;BME280_pressure;Samples;Min_cycle;Max_cycle;Signal;HPM_P1;HPM_P2
2022/08/11 00:00:44;;;;;;;2.33;1.92;;;;;;;;;;2097405;28;20472;-66
2022/08/11 00:02:03;;;;;;;1.70;1.60;;;;;;;;;;2099778;28;20040;-65
2022/08/11 00:03:22;;;;;;;2.45;1.80;;;;;;;;;;2100644;28;20029;-66
2022/08/11 00:04:41;;;;;;;1.70;1.60;;;;;;;;;;2098513;28;20029;-64
2022/08/11 00:06:01;;;;;;;1.67;1.58;;;;;;;;;;2101646;28;20078;-66
2022/08/11 00:07:20;;;;;;;3.10;1.60;;;;;;;;;;2101502;28;20025;-65
2022/08/11 00:08:39;;;;;;;2.22;1.73;;;;;;;;;;2097544;28;20049;-65
2022/08/11 00:09:59;;;;;;;1.95;1.77;;;;;;;;;;2096891;28;20032;-65
2022/08/11 00:11:18;;;;;;;1.92;1.83;;;;;;;;;;2099770;28;20040;-65
2022/08/11 00:12:37;;;;;;;3.63;1.73;;;;;;;;;;2099232;28;20115;-64
2022/08/11 00:13:57;;;;;;;2.55;1.83;;;;;;;;;;2101114;28;20520;-66
2022/08/11 00:15:16;;;;;;;1.70;1.60;;;;;;;;;;2097906;28;20496;-65
2022/08/11 00:16:35;;;;;;;1.60;1.50;;;;;;;;;;2100098;28;20032;-65
2022/08/11 00:17:58;;;;;;;2.35;1.90;;;;;;;;;;2099607;28;20037;-65
2022/08/11 00:19:22;;;;;;;4.38;1.70;;;;;;;;;;2099677;28;20111;-66
2022/08/11 00:20:42;;;;;;;1.50;1.40;;;;;;;;;;2100455;28;20028;-66
2022/08/11 00:22:02;;;;;;;2.72;1.85;;;;;;;;;;2100508;28;20112;-66
2022/08/11 00:23:22;;;;;;;3.15;1.80;;;;;;;;;;2101518;28;20103;-66
2022/08/11 00:24:41;;;;;;;1.98;1.88;;;;;;;;;;2099864;28;20025;-66
2022/08/11 00:26:06;;;;;;;2.78;1.55;;;;;;;;;;2098735;28;20024;-66
2022/08/11 00:27:32;;;;;;;3.05;1.70;;;;;;;;;;2097903;28;20031;-66
2022/08/11 00:28:51;;;;;;;2.08;1.73;;;;;;;;;;2098736;28;20029;-66
2022/08/11 00:30:11;;;;;;;1.88;1.77;;;;;;;;;;2099279;28;20445;-66
2022/08/11 00:31:30;;;;;;;2.40;1.65;;;;;;;;;;2099050;28;20032;-66
2022/08/11 00:32:54;;;;;;;2.95;1.73;;;;;;;;;;2099209;28;20481;-66
2022/08/11 00:34:14;;;;;;;1.85;1.75;;;;;;;;;;2099645;28;20119;-66
2022/08/11 00:35:34;;;;;;;1.67;1.55;;;;;;;;;;2098817;28;20032;-66
2022/08/11 00:37:00;;;;;;;2.22;2.03;;;;;;;;;;2099425;28;20477;-66
2022/08/11 00:38:22;;;;;;;3.47;1.50;;;;;;;;;;2099272;28;20048;-66
2022/08/11 00:39:43;;;;;;;1.75;1.65;;;;;;;;;;2100336;28;20071;-66
2022/08/11 00:41:16;;;;;;;1.60;1.50;;;;;;;;;;2098078;28;20024;-66
2022/08/11 00:42:57;;;;;;;2.30;1.75;;;;;;;;;;2098765;28;20040;-66
2022/08/11 00:44:16;;;;;;;1.75;1.65;;;;;;;;;;2100398;28;20052;-66
2022/08/11 00:45:39;;;;;;;1.50;1.40;;;;;;;;;;2099098;28;20393;-66
2022/08/11 00:47:00;;;;;;;3.55;1.50;;;;;;;;;;2098772;28;20028;-66
2022/08/11 00:48:35;;;;;;;1.70;1.60;;;;;;;;;;2101025;28;20497;-66
2022/08/11 00:50:18;;;;;;;1.75;1.65;;;;;;;;;;2099741;28;20090;-66
2022/08/11 00:51:55;;;;;;;1.50;1.37;;;;;;;;;;2099922;28;20032;-65
2022/08/11 00:53:35;;;;;;;3.08;1.38;;;;;;;;;;2098110;28;20301;-66
2022/08/11 00:54:54;;;;;;;4.57;1.80;;;;;;;;;;2099905;28;20389;-67
2022/08/11 00:56:13;;;;;;;1.85;1.50;;;;;;;;;;2098499;28;20481;-66
2022/08/11 00:57:32;;;;;;;1.52;1.45;;;;;;;;;;2099104;28;20044;-66
2022/08/11 00:58:57;;;;;;;2.22;1.40;;;;;;;;;;2101005;28;20029;-66
2022/08/11 01:00:16;;;;;;;4.60;1.55;;;;;;;;;;2099383;28;20020;-66
2022/08/11 01:01:47;;;;;;;2.35;1.40;;;;;;;;;;2099867;28;20102;-66
2022/08/11 01:03:32;;;;;;;4.53;1.67;;;;;;;;;;2099394;28;20032;-66
2022/08/11 01:05:03;;;;;;;5.00;1.48;;;;;;;;;;2089557;28;20032;-67
2022/08/11 01:06:25;;;;;;;4.15;1.60;;;;;;;;;;2098501;28;20389;-66
2022/08/11 01:08:04;;;;;;;1.48;1.38;;;;;;;;;;2100300;28;20025;-65
2022/08/11 01:09:41;;;;;;;2.55;1.42;;;;;;;;;;2100867;28;20029;-65
2022/08/11 01:11:13;;;;;;;1.50;1.40;;;;;;;;;;2099695;28;20028;-64
2022/08/11 01:12:41;;;;;;;4.05;2.00;;;;;;;;;;2101046;28;20024;-66
2022/08/11 01:14:12;;;;;;;1.75;1.33;;;;;;;;;;2102455;28;20028;-67
2022/08/11 01:15:40;;;;;;;2.33;1.70;;;;;;;;;;2099164;28;20032;-66
2022/08/11 01:16:59;;;;;;;3.78;1.75;;;;;;;;;;2100444;28;20028;-67
2022/08/11 01:18:34;;;;;;;1.90;1.60;;;;;;;;;;2101211;28;20025;-67
2022/08/11 01:19:56;;;;;;;2.10;1.27;;;;;;;;;;2101580;28;20024;-66
2022/08/11 01:21:34;;;;;;;1.30;1.20;;;;;;;;;;2100249;28;20017;-66
2022/08/11 01:23:11;;;;;;;1.60;1.50;;;;;;;;;;2100516;28;20017;-66
2022/08/11 01:24:51;;;;;;;3.30;1.38;;;;;;;;;;2101360;28;20392;-66
2022/08/11 01:26:29;;;;;;;1.50;1.40;;;;;;;;;;2098412;28;20067;-66
2022/08/11 01:28:07;;;;;;;3.83;1.73;;;;;;;;;;2101064;28;20050;-67
2022/08/11 01:29:49;;;;;;;1.50;1.40;;;;;;;;;;2101403;28;20032;-66
2022/08/11 01:31:14;;;;;;;3.55;1.75;;;;;;;;;;2101047;28;20064;-65
2022/08/11 01:32:55;;;;;;;1.90;1.48;;;;;;;;;;2100584;28;20583;-66
2022/08/11 01:34:20;;;;;;;1.30;1.20;;;;;;;;;;2100225;28;20036;-66
2022/08/11 01:35:58;;;;;;;2.97;1.20;;;;;;;;;;2101864;28;20056;-66
2022/08/11 01:37:23;;;;;;;1.77;1.27;;;;;;;;;;2101852;28;20400;-67
2022/08/11 01:38:58;;;;;;;1.33;1.27;;;;;;;;;;2100798;28;20044;-66
2022/08/11 01:40:32;;;;;;;1.92;1.48;;;;;;;;;;2098562;28;20063;-66
2022/08/11 01:45:36;;;;;;;1.52;1.40;;;;;;;;;;2098994;28;20422;-66
2022/08/11 01:46:55;;;;;;;;;;;;;;;;;;2098915;28;20028;-66
2022/08/11 01:48:26;;;;;;;2.33;1.60;;;;;;;;;;2102310;28;19913;-66
2022/08/11 01:50:00;;;;;;;1.35;1.25;;;;;;;;;;2099094;28;20115;-66
2022/08/11 01:51:19;;;;;;;4.80;1.50;;;;;;;;;;2100296;28;20047;-66
2022/08/11 01:52:54;;;;;;;1.40;1.30;;;;;;;;;;2102519;28;20040;-66
2022/08/11 01:54:23;;;;;;;1.45;1.33;;;;;;;;;;2101881;28;20025;-66
2022/08/11 01:55:48;;;;;;;1.88;1.40;;;;;;;;;;2099768;28;20032;-67
2022/08/11 01:57:15;;;;;;;1.50;1.40;;;;;;;;;;2101169;28;20032;-66
2022/08/11 01:58:44;;;;;;;3.53;1.80;;;;;;;;;;2100178;28;20056;-67
2022/08/11 02:00:03;;;;;;;1.65;1.38;;;;;;;;;;2101589;28;20024;-66
2022/08/11 02:01:22;;;;;;;6.22;2.13;;;;;;;;;;2099173;28;20025;-66
2022/08/11 02:03:02;;;;;;;1.38;1.27;;;;;;;;;;2100878;28;20067;-66
2022/08/11 02:04:41;;;;;;;4.63;1.35;;;;;;;;;;2101701;28;20408;-66
2022/08/11 02:07:56;;;;;;;3.10;1.38;;;;;;;;;;2100919;28;20032;-66
2022/08/11 02:09:20;;;;;;;2.35;1.45;;;;;;;;;;2100302;28;20028;-66
2022/08/11 02:12:26;;;;;;;2.35;1.52;;;;;;;;;;2101651;28;20072;-66
2022/08/11 02:13:48;;;;;;;2.83;1.48;;;;;;;;;;2101544;28;20115;-65
2022/08/11 02:15:07;;;;;;;2.05;1.40;;;;;;;;;;2100135;28;20468;-65
2022/08/11 02:16:32;;;;;;;5.07;1.58;;;;;;;;;;2100674;28;20036;-66
2022/08/11 02:18:00;;;;;;;1.77;1.35;;;;;;;;;;2100015;28;20052;-66
2022/08/11 02:24:59;;;;;;;2.10;1.20;;;;;;;;;;2099792;28;20028;-66
2022/08/11 02:26:22;;;;;;;1.92;1.77;;;;;;;;;;2101328;28;20025;-66
2022/08/11 02:27:47;;;;;;;2.38;1.60;;;;;;;;;;2099975;28;20036;-66
2022/08/11 02:29:25;;;;;;;2.75;1.60;;;;;;;;;;2100420;28;20513;-65
2022/08/11 02:33:21;;;;;;;2.95;1.40;;;;;;;;;;2098008;28;20037;-66
2022/08/11 02:34:39;;;;;;;1.88;1.50;;;;;;;;;;2100613;28;20020;-67
2022/08/11 02:36:30;;;;;;;1.75;1.50;;;;;;;;;;2100830;28;20028;-66
2022/08/11 02:38:10;;;;;;;1.65;1.52;;;;;;;;;;2088334;28;20029;-66
2022/08/11 02:39:41;;;;;;;1.83;1.73;;;;;;;;;;2101399;28;20028;-66
2022/08/11 02:43:01;;;;;;;5.60;2.22;;;;;;;;;;2101280;28;20036;-66
2022/08/11 02:44:20;;;;;;;1.73;1.63;;;;;;;;;;2101530;28;20547;-67
2022/08/11 02:45:39;;;;;;;2.65;1.98;;;;;;;;;;2098968;28;20041;-66
2022/08/11 02:47:04;;;;;;;1.95;1.85;;;;;;;;;;2100728;28;20028;-66
2022/08/11 02:50:00;;;;;;;3.95;1.50;;;;;;;;;;2101942;28;20047;-66
2022/08/11 02:51:34;;;;;;;1.88;1.75;;;;;;;;;;2100843;28;20035;-67
2022/08/11 02:52:59;;;;;;;2.50;1.90;;;;;;;;;;2100277;28;20028;-65
2022/08/11 02:54:37;;;;;;;2.47;1.77;;;;;;;;;;2101168;28;20058;-66
2022/08/11 02:56:02;;;;;;;1.67;1.58;;;;;;;;;;2100991;28;20060;-65
2022/08/11 02:57:26;;;;;;;1.90;1.65;;;;;;;;;;2101756;28;20020;-66
2022/08/11 03:00:43;;;;;;;2.78;1.80;;;;;;;;;;2098535;28;20111;-66
2022/08/11 03:02:21;;;;;;;2.60;2.05;;;;;;;;;;2101392;28;20021;-66
2022/08/11 03:03:54;;;;;;;3.50;1.67;;;;;;;;;;2099339;28;20036;-67
2022/08/11 03:05:16;;;;;;;2.35;1.95;;;;;;;;;;2100149;28;20036;-66
2022/08/11 03:07:11;;;;;;;1.85;1.75;;;;;;;;;;2100520;28;20107;-66
2022/08/11 03:08:36;;;;;;;2.63;1.75;;;;;;;;;;2094608;28;20505;-65
2022/08/11 03:09:59;;;;;;;6.55;1.92;;;;;;;;;;2092564;28;20044;-65
2022/08/11 03:16:51;;;;;;;1.70;1.60;;;;;;;;;;2100932;28;20050;-66
2022/08/11 03:18:23;;;;;;;2.30;1.83;;;;;;;;;;2099898;28;20028;-67
2022/08/11 03:20:15;;;;;;;2.35;1.77;;;;;;;;;;2100748;28;20060;-66
2022/08/11 03:21:39;;;;;;;2.40;2.08;;;;;;;;;;2088422;28;20029;-65
2022/08/11 03:23:04;;;;;;;2.40;1.80;;;;;;;;;;2099542;28;20484;-66
2022/08/11 03:24:29;;;;;;;3.33;1.70;;;;;;;;;;2097453;28;20067;-66
2022/08/11 03:25:57;;;;;;;2.05;1.85;;;;;;;;;;2097568;28;20434;-67
2022/08/11 03:27:30;;;;;;;2.00;1.80;;;;;;;;;;2099371;28;20131;-67
2022/08/11 03:29:03;;;;;;;1.88;1.77;;;;;;;;;;2103798;28;20045;-66
2022/08/11 03:30:30;;;;;;;5.60;2.22;;;;;;;;;;2100990;28;20037;-66
2022/08/11 03:31:55;;;;;;;2.10;1.90;;;;;;;;;;2101243;28;20033;-66
2022/08/11 03:35:02;;;;;;;2.00;1.65;;;;;;;;;;2100946;28;20064;-67
2022/08/11 03:36:50;;;;;;;3.40;2.03;;;;;;;;;;2099725;28;20473;-66
2022/08/11 03:38:12;;;;;;;3.40;1.80;;;;;;;;;;2099649;28;20060;-66
2022/08/11 03:39:49;;;;;;;2.20;1.90;;;;;;;;;;2101409;28;20032;-66
2022/08/11 03:42:57;;;;;;;3.08;2.00;;;;;;;;;;2100399;28;20032;-68
2022/08/11 03:44:16;;;;;;;3.85;2.15;;;;;;;;;;2098756;28;20017;-66
2022/08/11 03:46:07;;;;;;;2.28;1.90;;;;;;;;;;2099449;28;20041;-67
2022/08/11 03:47:35;;;;;;;2.35;1.80;;;;;;;;;;2088634;28;20033;-67
2022/08/11 03:49:19;;;;;;;2.97;2.05;;;;;;;;;;2100281;28;20107;-66
2022/08/11 03:50:38;;;;;;;2.67;2.15;;;;;;;;;;2099839;28;20044;-67
2022/08/11 03:52:16;;;;;;;3.38;1.98;;;;;;;;;;2100848;28;20040;-65
2022/08/11 03:53:46;;;;;;;2.38;2.17;;;;;;;;;;2099930;28;20025;-65
2022/08/11 03:55:34;;;;;;;2.58;1.95;;;;;;;;;;2099308;28;20028;-67
2022/08/11 03:57:06;;;;;;;5.20;1.90;;;;;;;;;;2083974;28;20275;-67
2022/08/11 03:58:24;;;;;;;2.08;1.98;;;;;;;;;;2096253;28;20419;-67
2022/08/11 04:00:09;;;;;;;3.60;1.90;;;;;;;;;;2099821;28;20044;-66
2022/08/11 04:01:32;;;;;;;3.72;1.80;;;;;;;;;;2099530;28;20139;-67
2022/08/11 04:03:00;;;;;;;2.15;1.88;;;;;;;;;;2100927;28;20016;-67
2022/08/11 04:04:42;;;;;;;2.78;1.85;;;;;;;;;;2096681;28;20028;-66
2022/08/11 04:06:10;;;;;;;2.20;2.00;;;;;;;;;;2100058;28;20036;-67
2022/08/11 04:07:47;;;;;;;2.58;1.75;;;;;;;;;;2100729;28;20017;-66
2022/08/11 04:09:25;;;;;;;3.30;2.15;;;;;;;;;;2100267;28;20107;-67
2022/08/11 04:11:03;;;;;;;2.70;1.83;;;;;;;;;;2099947;28;20044;-67
2022/08/11 04:12:28;;;;;;;3.70;1.98;;;;;;;;;;2099921;28;20028;-66
2022/08/11 04:13:47;;;;;;;2.05;1.80;;;;;;;;;;2100086;28;20029;-66
2022/08/11 04:17:06;;;;;;;3.63;1.70;;;;;;;;;;2100465;28;20040;-67
2022/08/11 04:18:41;;;;;;;3.00;1.95;;;;;;;;;;2101936;28;20044;-66
2022/08/11 04:20:15;;;;;;;1.80;1.70;;;;;;;;;;2099259;28;20020;-66
2022/08/11 04:21:34;;;;;;;3.45;1.83;;;;;;;;;;2101146;28;20127;-67
2022/08/11 04:23:12;;;;;;;4.10;2.17;;;;;;;;;;2101198;28;20032;-67
2022/08/11 04:24:45;;;;;;;2.80;2.05;;;;;;;;;;2098060;28;20027;-67
2022/08/11 04:26:04;;;;;;;2.20;2.10;;;;;;;;;;2100219;28;20721;-66
2022/08/11 04:27:39;;;;;;;3.10;1.90;;;;;;;;;;2098073;28;20035;-67
2022/08/11 04:29:10;;;;;;;2.65;2.45;;;;;;;;;;2099935;28;20028;-66
2022/08/11 04:30:49;;;;;;;3.20;2.13;;;;;;;;;;2099154;28;20480;-66
2022/08/11 04:32:34;;;;;;;2.22;2.00;;;;;;;;;;2101389;28;20442;-66
2022/08/11 04:33:52;;;;;;;2.38;2.17;;;;;;;;;;2100476;28;20032;-66
2022/08/11 04:35:11;;;;;;;4.82;2.17;;;;;;;;;;2099996;28;20032;-66
2022/08/11 04:38:27;;;;;;;2.22;1.85;;;;;;;;;;2098337;28;20024;-65
2022/08/11 04:39:49;;;;;;;2.65;1.90;;;;;;;;;;2099135;28;20036;-64
2022/08/11 04:41:29;;;;;;;3.33;2.00;;;;;;;;;;2100838;28;20028;-64
2022/08/11 04:43:22;;;;;;;3.80;2.05;;;;;;;;;;2100388;28;20104;-64
2022/08/11 04:44:50;;;;;;;3.20;2.20;;;;;;;;;;2096628;28;20455;-66
2022/08/11 04:46:09;;;;;;;2.88;2.10;;;;;;;;;;2098260;28;20028;-64
2022/08/11 05:02:05;;;;;;;4.75;2.08;;;;;;;;;;2096301;28;20032;-64
2022/08/11 05:03:24;;;;;;;2.50;2.25;;;;;;;;;;2100238;28;20389;-64
2022/08/11 05:06:56;;;;;;;2.70;2.10;;;;;;;;;;2098334;28;20028;-64
2022/08/11 05:08:41;;;;;;;2.72;1.90;;;;;;;;;;2097243;28;20037;-63
2022/08/11 05:10:27;;;;;;;2.58;2.08;;;;;;;;;;2085121;28;20032;-64
2022/08/11 05:11:49;;;;;;;3.78;2.40;;;;;;;;;;2091644;28;20024;-64
2022/08/11 05:35:48;;;;;;;3.72;2.35;;;;;;;;;;2094536;28;20032;-64
2022/08/11 05:37:27;;;;;;;3.38;2.05;;;;;;;;;;2100474;28;20032;-65
2022/08/11 05:57:17;;;;;;;1.83;1.73;;;;;;;;;;2097524;28;20032;-67
2022/08/11 05:58:37;;;;;;;3.55;2.03;;;;;;;;;;2100856;28;20112;-68
2022/08/11 05:59:58;;;;;;;2.30;2.08;;;;;;;;;;2100903;28;20028;-68
2022/08/11 06:01:24;;;;;;;4.55;2.28;;;;;;;;;;2100225;28;20527;-68
2022/08/11 06:02:45;;;;;;;3.72;1.98;;;;;;;;;;2100671;28;20492;-68
2022/08/11 06:04:14;;;;;;;3.58;1.85;;;;;;;;;;2100475;28;20051;-68
2022/08/11 06:05:34;;;;;;;2.13;1.85;;;;;;;;;;2101625;28;20020;-69
2022/08/11 06:06:55;;;;;;;2.80;2.05;;;;;;;;;;2100541;28;20387;-68
2022/08/11 06:08:14;;;;;;;2.80;1.70;;;;;;;;;;2100696;28;20036;-68
2022/08/11 06:09:34;;;;;;;2.20;2.00;;;;;;;;;;2101017;28;20435;-69
2022/08/11 06:10:58;;;;;;;6.72;2.00;;;;;;;;;;2097174;28;20044;-69
2022/08/11 06:12:26;;;;;;;2.10;1.90;;;;;;;;;;2099466;28;20138;-68
2022/08/11 06:13:45;;;;;;;3.75;2.10;;;;;;;;;;2101554;28;20037;-69
2022/08/11 06:15:04;;;;;;;2.22;1.73;;;;;;;;;;2102035;28;20029;-68
2022/08/11 06:16:26;;;;;;;2.67;1.95;;;;;;;;;;2101338;28;20389;-68
2022/08/11 06:17:47;;;;;;;3.53;2.13;;;;;;;;;;2101334;28;20032;-68
2022/08/11 06:19:07;;;;;;;2.20;2.00;;;;;;;;;;2100455;28;20479;-67
2022/08/11 06:20:31;;;;;;;3.70;2.08;;;;;;;;;;2101174;28;20044;-68
2022/08/11 06:21:52;;;;;;;2.40;2.20;;;;;;;;;;2101521;28;20489;-68
2022/08/11 06:23:13;;;;;;;3.55;2.30;;;;;;;;;;2100816;28;20016;-68
2022/08/11 06:24:35;;;;;;;4.72;1.80;;;;;;;;;;2101243;28;20481;-68
2022/08/11 06:25:54;;;;;;;2.67;2.08;;;;;;;;;;2101492;28;20245;-68
2022/08/11 06:27:18;;;;;;;4.25;1.60;;;;;;;;;;2101106;28;20032;-68
2022/08/11 06:28:37;;;;;;;3.20;1.95;;;;;;;;;;2102183;28;20020;-68
2022/08/11 06:29:57;;;;;;;4.32;1.80;;;;;;;;;;2101710;28;20032;-69
2022/08/11 06:31:18;;;;;;;3.17;2.20;;;;;;;;;;2100490;28;20035;-68
2022/08/11 06:32:37;;;;;;;2.55;2.10;;;;;;;;;;2101351;28;20036;-67
2022/08/11 06:34:24;;;;;;;4.90;2.10;;;;;;;;;;2101109;28;20405;-68
2022/08/11 06:35:47;;;;;;;4.35;1.90;;;;;;;;;;2100650;28;20433;-69
2022/08/11 06:37:25;;;;;;;4.63;2.58;;;;;;;;;;2100172;28;20107;-67
2022/08/11 06:39:02;;;;;;;3.25;2.00;;;;;;;;;;2101300;28;20036;-69
2022/08/11 06:40:26;;;;;;;2.05;1.85;;;;;;;;;;2101953;28;20040;-67
2022/08/11 06:41:45;;;;;;;;;;;;;;;;;;2100538;28;20032;-67
2022/08/11 06:43:15;;;;;;;4.18;2.08;;;;;;;;;;2101407;28;20370;-67
2022/08/11 06:44:50;;;;;;;2.03;1.85;;;;;;;;;;2100885;28;20036;-67
2022/08/11 06:46:10;;;;;;;3.85;1.90;;;;;;;;;;2098565;28;20116;-67
2022/08/11 06:47:28;;;;;;;2.35;2.15;;;;;;;;;;2100891;28;20111;-69
2022/08/11 06:48:52;;;;;;;2.95;2.00;;;;;;;;;;2100405;28;20154;-67
2022/08/11 06:51:53;;;;;;;1.95;1.85;;;;;;;;;;2100054;28;20036;-65
2022/08/11 06:53:14;;;;;;;3.30;2.20;;;;;;;;;;2102001;28;20186;-66
2022/08/11 06:54:40;;;;;;;2.50;1.80;;;;;;;;;;2097429;28;20056;-64
2022/08/11 07:00:56;;;;;;;2.28;1.73;;;;;;;;;;2099811;28;20056;-64
2022/08/11 07:02:17;;;;;;;3.38;2.15;;;;;;;;;;2100623;28;20036;-65
2022/08/11 07:03:37;;;;;;;2.30;1.70;;;;;;;;;;2100738;28;20103;-64
2022/08/11 07:05:12;;;;;;;2.20;2.00;;;;;;;;;;2100424;28;20054;-66
2022/08/11 07:06:37;;;;;;;4.40;2.00;;;;;;;;;;2100921;28;20432;-64
2022/08/11 07:16:47;;;;;;;2.08;1.50;;;;;;;;;;2100698;28;20480;-63
2022/08/11 07:29:52;;;;;;;3.20;1.92;;;;;;;;;;2101034;28;20020;-66
2022/08/11 07:31:12;;;;;;;4.25;1.83;;;;;;;;;;2099935;28;20104;-66
2022/08/11 07:32:32;;;;;;;2.35;2.08;;;;;;;;;;2099917;28;20028;-64
2022/08/11 07:33:56;;;;;;;3.60;1.80;;;;;;;;;;2100772;28;20024;-65
2022/08/11 07:35:16;;;;;;;1.75;1.60;;;;;;;;;;2100144;28;20029;-65
2022/08/11 07:36:47;;;;;;;3.40;1.90;;;;;;;;;;2101143;28;20024;-65
2022/08/11 07:38:07;;;;;;;3.55;1.90;;;;;;;;;;2100838;28;20021;-65
2022/08/11 07:39:27;;;;;;;5.00;2.25;;;;;;;;;;2100908;28;20439;-66
2022/08/11 07:40:47;;;;;;;4.10;1.75;;;;;;;;;;2101724;28;20036;-66
2022/08/11 07:42:08;;;;;;;3.92;1.73;;;;;;;;;;2100931;28;20033;-66
2022/08/11 07:43:27;;;;;;;4.85;1.70;;;;;;;;;;2099849;28;20028;-64
2022/08/11 07:52:59;;;;;;;2.83;1.70;;;;;;;;;;2098913;28;20025;-67
2022/08/11 07:54:19;;;;;;;6.47;1.98;;;;;;;;;;2100192;28;20032;-66
2022/08/11 07:55:38;;;;;;;3.38;2.00;;;;;;;;;;2100892;28;20384;-66
2022/08/11 07:56:57;;;;;;;2.80;1.67;;;;;;;;;;2100596;28;20016;-67
2022/08/11 08:17:58;;;;;;;4.63;1.80;;;;;;;;;;2100094;28;20480;-64
2022/08/11 08:19:19;;;;;;;3.17;2.17;;;;;;;;;;2097989;28;20489;-65
2022/08/11 08:20:41;;;;;;;3.58;1.70;;;;;;;;;;2098287;28;20127;-64
2022/08/11 08:22:01;;;;;;;2.03;1.65;;;;;;;;;;2101241;28;20032;-65
2022/08/11 08:23:33;;;;;;;2.53;1.55;;;;;;;;;;2100808;28;20056;-65
2022/08/11 08:24:55;;;;;;;3.47;1.85;;;;;;;;;;2101235;28;20032;-65
2022/08/11 08:27:52;;;;;;;4.63;1.70;;;;;;;;;;2101196;28;20377;-65
2022/08/11 08:30:50;;;;;;;3.78;1.70;;;;;;;;;;2098438;28;20384;-64
2022/08/11 08:32:15;;;;;;;3.90;1.88;;;;;;;;;;2101435;28;20481;-65
2022/08/11 08:33:34;;;;;;;3.47;1.60;;;;;;;;;;2099907;28;20068;-72
2022/08/11 08:34:56;;;;;;;2.72;1.45;;;;;;;;;;2100837;28;20508;-67
2022/08/11 08:36:15;;;;;;;5.18;1.70;;;;;;;;;;2099040;28;20036;-69
2022/08/11 08:37:34;;;;;;;2.22;1.50;;;;;;;;;;2100676;28;20029;-67
2022/08/11 08:38:53;;;;;;;1.33;1.23;;;;;;;;;;2099069;28;20131;-69
2022/08/11 08:40:13;;;;;;;4.72;1.70;;;;;;;;;;2100022;28;20097;-67
2022/08/11 08:41:35;;;;;;;2.70;1.33;;;;;;;;;;2099821;28;20040;-68
2022/08/11 08:42:55;;;;;;;2.35;1.38;;;;;;;;;;2100764;28;20032;-67
2022/08/11 08:44:16;;;;;;;3.08;1.83;;;;;;;;;;2100899;28;20036;-69
2022/08/11 08:45:36;;;;;;;1.70;1.35;;;;;;;;;;2099203;28;20024;-68
2022/08/11 08:46:56;;;;;;;2.95;1.60;;;;;;;;;;2100843;28;20840;-66
2022/08/11 08:48:16;;;;;;;2.60;1.65;;;;;;;;;;2100813;28;20033;-66
2022/08/11 08:49:37;;;;;;;3.45;1.55;;;;;;;;;;2098981;28;20024;-66
2022/08/11 08:52:41;;;;;;;2.83;1.63;;;;;;;;;;2100112;28;20025;-66
2022/08/11 08:54:11;;;;;;;2.55;1.52;;;;;;;;;;2099295;28;20031;-65
2022/08/11 08:55:30;;;;;;;4.05;1.48;;;;;;;;;;2100479;28;20059;-66
2022/08/11 08:56:53;;;;;;;2.75;1.75;;;;;;;;;;2099946;28;20035;-66
2022/08/11 08:58:12;;;;;;;;;;;;;;;;;;2100027;28;20536;-67
2022/08/11 08:59:37;;;;;;;3.97;1.60;;;;;;;;;;2100434;28;19908;-66
2022/08/11 09:00:58;;;;;;;4.15;1.73;;;;;;;;;;2100387;28;20028;-65
2022/08/11 09:02:18;;;;;;;2.15;1.50;;;;;;;;;;2100130;28;20376;-65
2022/08/11 09:03:38;;;;;;;3.28;1.60;;;;;;;;;;2099354;28;20072;-67
2022/08/11 09:04:57;;;;;;;3.08;1.50;;;;;;;;;;2099930;28;20032;-67
2022/08/11 09:06:17;;;;;;;2.92;1.58;;;;;;;;;;2099874;28;20016;-66
2022/08/11 09:07:36;;;;;;;1.88;1.48;;;;;;;;;;2100246;28;20029;-66
2022/08/11 09:08:55;;;;;;;2.45;1.70;;;;;;;;;;2099914;28;20384;-66
2022/08/11 09:10:17;;;;;;;2.88;1.48;;;;;;;;;;2099200;28;20025;-67
2022/08/11 09:11:49;;;;;;;3.08;1.77;;;;;;;;;;2098733;28;20129;-67
2022/08/11 09:13:08;;;;;;;1.98;1.30;;;;;;;;;;2100449;28;20024;-67
2022/08/11 09:16:11;;;;;;;2.47;1.40;;;;;;;;;;2101111;28;20036;-67
2022/08/11 09:17:30;;;;;;;2.45;1.15;;;;;;;;;;2099153;28;20099;-67
2022/08/11 09:18:50;;;;;;;1.55;1.45;;;;;;;;;;2101421;28;20076;-68
2022/08/11 09:20:13;;;;;;;1.42;1.10;;;;;;;;;;2100150;28;20036;-67
2022/08/11 09:21:32;;;;;;;3.67;1.50;;;;;;;;;;2098288;28;20091;-66
2022/08/11 09:28:12;;;;;;;2.90;1.30;;;;;;;;;;2084027;28;20063;-67
2022/08/11 09:29:31;;;;;;;1.20;1.05;;;;;;;;;;2084718;28;20032;-68
2022/08/11 09:30:52;;;;;;;1.88;1.48;;;;;;;;;;2098413;28;21478;-66
2022/08/11 09:32:11;;;;;;;3.85;1.35;;;;;;;;;;2099683;28;20024;-67
2022/08/11 09:33:31;;;;;;;3.45;1.40;;;;;;;;;;2102662;28;20107;-67
2022/08/11 09:34:50;;;;;;;3.40;1.42;;;;;;;;;;2101924;28;20488;-68
2022/08/11 09:41:09;;;;;;;2.15;1.20;;;;;;;;;;2101188;28;20477;-66
2022/08/11 09:44:45;;;;;;;1.83;1.00;;;;;;;;;;2101789;28;20554;-66
2022/08/11 09:45:50;;;;;;;3.25;1.48;;;;;;;;;;2100016;28;20033;-66
2022/08/11 09:47:14;;;;;;;;;;;;;;;;;;2103014;28;20424;-67
2022/08/11 09:48:38;;;;;;;3.83;1.15;;;;;;;;;;2101731;28;19912;-67
2022/08/11 09:49:59;;;;;;;2.28;1.40;;;;;;;;;;2101278;28;20091;-67
2022/08/11 09:51:20;;;;;;;2.22;1.30;;;;;;;;;;2101934;28;20032;-67
2022/08/11 09:52:39;;;;;;;4.72;1.00;;;;;;;;;;2102704;28;20029;-66
2022/08/11 09:53:59;;;;;;;2.28;1.20;;;;;;;;;;2102763;28;20024;-68
2022/08/11 09:55:18;;;;;;;1.55;1.10;;;;;;;;;;2101675;28;20032;-67
2022/08/11 09:58:16;;;;;;;3.05;1.30;;;;;;;;;;2100907;28;20032;-66
2022/08/11 09:59:36;;;;;;;2.15;1.33;;;;;;;;;;2101986;28;20107;-67
2022/08/11 10:00:56;;;;;;;2.08;1.50;;;;;;;;;;2099245;28;20048;-67
2022/08/11 10:02:17;;;;;;;4.80;1.20;;;;;;;;;;2101468;28;20485;-66
2022/08/11 10:03:37;;;;;;;5.22;1.40;;;;;;;;;;2101009;28;20028;-67
2022/08/11 10:08:16;;;;;;;3.10;1.27;;;;;;;;;;2101482;28;20024;-64
2022/08/11 10:09:38;;;;;;;3.40;1.38;;;;;;;;;;2100269;28;20021;-67
2022/08/11 10:10:57;;;;;;;2.65;1.10;;;;;;;;;;2099188;28;20028;-66
2022/08/11 10:12:28;;;;;;;2.17;1.20;;;;;;;;;;2101460;28;20029;-67
2022/08/11 10:15:39;;;;;;;1.88;1.13;;;;;;;;;;2096910;28;20028;-67
2022/08/11 10:16:59;;;;;;;1.17;1.00;;;;;;;;;;2101411;28;20049;-68
2022/08/11 10:20:01;;;;;;;1.63;1.40;;;;;;;;;;2100543;28;20446;-65
2022/08/11 10:21:36;;;;;;;1.45;0.93;;;;;;;;;;2099643;28;20036;-67
2022/08/11 10:27:57;;;;;;;1.73;1.23;;;;;;;;;;2101165;28;20025;-67
2022/08/11 10:34:10;;;;;;;2.15;1.10;;;;;;;;;;2102136;28;20028;-67
2022/08/11 10:35:30;;;;;;;5.00;1.58;;;;;;;;;;2099840;28;20024;-67
2022/08/11 10:36:49;;;;;;;1.80;1.30;;;;;;;;;;2100495;28;20036;-67
2022/08/11 10:38:08;;;;;;;1.40;1.05;;;;;;;;;;2100347;28;20029;-67
2022/08/11 10:39:28;;;;;;;2.92;0.90;;;;;;;;;;2101916;28;20040;-67
2022/08/11 10:43:01;;;;;;;4.03;1.27;;;;;;;;;;2099817;28;20032;-67
2022/08/11 10:44:09;;;;;;;3.10;1.25;;;;;;;;;;2100356;28;20048;-68
2022/08/11 10:48:52;;;;;;;2.95;1.20;;;;;;;;;;2101406;28;20032;-68
2022/08/11 11:00:00;;;;;;;2.65;0.90;;;;;;;;;;2100354;28;20096;-68
2022/08/11 11:01:23;;;;;;;2.47;0.90;;;;;;;;;;2100170;28;20426;-65
2022/08/11 11:02:42;;;;;;;;;;;;;;;;;;2101386;28;20025;-66
2022/08/11 11:04:03;;;;;;;1.83;1.10;;;;;;;;;;2100029;28;19904;-65
2022/08/11 11:05:27;;;;;;;1.10;0.90;;;;;;;;;;2100741;28;20032;-68
2022/08/11 11:06:52;;;;;;;0.90;0.90;;;;;;;;;;2099824;28;20028;-68
2022/08/11 11:09:57;;;;;;;2.53;1.00;;;;;;;;;;2100561;28;20103;-68
2022/08/11 11:11:17;;;;;;;1.33;0.98;;;;;;;;;;2099607;28;20032;-68
2022/08/11 11:19:19;;;;;;;4.07;1.20;;;;;;;;;;2099233;28;20033;-68
2022/08/11 11:20:41;;;;;;;1.60;1.35;;;;;;;;;;2101301;28;20043;-68
2022/08/11 11:22:36;;;;;;;1.83;1.13;;;;;;;;;;2101287;28;20061;-67
2022/08/11 11:23:46;;;;;;;2.20;1.00;;;;;;;;;;2102583;28;20036;-68
2022/08/11 11:25:23;;;;;;;3.45;1.15;;;;;;;;;;2101278;28;20024;-68
2022/08/11 11:26:55;;;;;;;3.00;1.17;;;;;;;;;;2100735;28;20119;-68
2022/08/11 11:28:33;;;;;;;2.13;0.90;;;;;;;;;;2101570;28;20021;-67
2022/08/11 11:30:05;;;;;;;2.00;1.23;;;;;;;;;;2102142;28;20028;-68
2022/08/11 11:31:30;;;;;;;2.58;0.95;;;;;;;;;;2098935;28;20024;-68
2022/08/11 11:33:01;;;;;;;1.73;0.85;;;;;;;;;;2099653;28;20036;-68
2022/08/11 11:34:38;;;;;;;2.00;1.00;;;;;;;;;;2100937;28;20024;-68
2022/08/11 11:36:04;;;;;;;3.33;1.02;;;;;;;;;;2098532;28;20438;-67
2022/08/11 11:37:23;;;;;;;3.03;1.00;;;;;;;;;;2099617;28;20052;-67
2022/08/11 11:38:42;;;;;;;3.00;0.93;;;;;;;;;;2100073;28;20051;-69
2022/08/11 11:40:27;;;;;;;1.17;0.98;;;;;;;;;;2099582;28;20439;-69
2022/08/11 11:41:48;;;;;;;0.75;0.70;;;;;;;;;;2099132;28;20111;-66
2022/08/11 11:43:07;;;;;;;3.60;1.20;;;;;;;;;;2101256;28;20481;-68
2022/08/11 11:44:26;;;;;;;1.85;1.05;;;;;;;;;;2101552;28;20063;-66
2022/08/11 11:45:45;;;;;;;1.83;1.05;;;;;;;;;;2100727;28;20032;-66
2022/08/11 11:47:05;;;;;;;1.60;0.90;;;;;;;;;;2100054;28;20115;-66
2022/08/11 11:48:27;;;;;;;3.08;1.08;;;;;;;;;;2100466;28;20495;-66
2022/08/11 11:49:47;;;;;;;5.45;1.00;;;;;;;;;;2100163;28;20032;-68
2022/08/11 11:51:07;;;;;;;2.72;0.90;;;;;;;;;;2101103;28;20099;-67
2022/08/11 11:52:26;;;;;;;2.08;1.23;;;;;;;;;;2100069;28;20504;-67
2022/08/11 11:53:45;;;;;;;1.52;0.95;;;;;;;;;;2099886;28;20449;-67
2022/08/11 11:55:05;;;;;;;4.05;0.82;;;;;;;;;;2101104;28;20484;-63
2022/08/11 11:56:24;;;;;;;1.15;0.90;;;;;;;;;;2098717;28;20111;-65
2022/08/11 12:01:18;;;;;;;2.63;0.90;;;;;;;;;;2099860;28;20484;-64
2022/08/11 12:02:38;;;;;;;1.73;0.90;;;;;;;;;;2098494;28;20032;-63
2022/08/11 12:03:57;;;;;;;1.98;0.90;;;;;;;;;;2099614;28;20491;-63